sensor_id;sensor_type;location;lat;lon;timestamp;temperature;humidity
21498;DHT22;10910;50.932;0.246;2024-02-28T00:00:05;6.20;100.00
21498;DHT22;10910;50.932;0.246;2024-02-28T00:02:30;6.20;100.00
21498;DHT22;10910;50.932;0.246;2024-02-28T00:04:56;6.20;100.00
21498;DHT22;10910;50.932;0.246;2024-02-28T00:07:24;6.20;100.00
21498;DHT22;10910;50.932;0.246;2024-02-28T00:09:50;6.30;100.00
21498;DHT22;10910;50.932;0.246;2024-02-28T00:12:15;6.30;100.00
21498;DHT22;10910;50.932;0.246;2024-02-28T00:14:41;6.30;100.00
21498;DHT22;10910;50.932;0.246;2024-02-28T00:17:07;6.40;100.00
21498;DHT22;10910;50.932;0.246;2024-02-28T00:19:33;6.40;100.00
21498;DHT22;10910;50.932;0.246;2024-02-28T00:21:58;6.40;100.00
21498;DHT22;10910;50.932;0.246;2024-02-28T00:24:25;6.40;100.00
21498;DHT22;10910;50.932;0.246;2024-02-28T00:26:51;6.50;100.00
21498;DHT22;10910;50.932;0.246;2024-02-28T00:29:16;6.50;100.00
21498;DHT22;10910;50.932;0.246;2024-02-28T00:31:42;6.50;100.00
21498;DHT22;10910;50.932;0.246;2024-02-28T00:34:08;6.50;100.00
21498;DHT22;10910;50.932;0.246;2024-02-28T00:36:34;6.50;100.00
21498;DHT22;10910;50.932;0.246;2024-02-28T00:39:00;6.60;100.00
21498;DHT22;10910;50.932;0.246;2024-02-28T00:41:25;6.60;100.00
21498;DHT22;10910;50.932;0.246;2024-02-28T00:43:51;6.60;100.00
21498;DHT22;10910;50.932;0.246;2024-02-28T00:46:16;6.50;100.00
21498;DHT22;10910;50.932;0.246;2024-02-28T00:48:42;6.60;100.00
21498;DHT22;10910;50.932;0.246;2024-02-28T00:51:08;6.50;100.00
21498;DHT22;10910;50.932;0.246;2024-02-28T00:53:33;6.50;100.00
21498;DHT22;10910;50.932;0.246;2024-02-28T00:55:59;6.50;100.00
21498;DHT22;10910;50.932;0.246;2024-02-28T00:58:25;6.50;100.00
21498;DHT22;10910;50.932;0.246;2024-02-28T01:00:53;6.50;100.00
21498;DHT22;10910;50.932;0.246;2024-02-28T01:03:18;6.60;100.00
21498;DHT22;10910;50.932;0.246;2024-02-28T01:05:44;6.60;100.00
21498;DHT22;10910;50.932;0.246;2024-02-28T01:08:10;6.60;100.00
21498;DHT22;10910;50.932;0.246;2024-02-28T01:10:35;6.60;100.00
21498;DHT22;10910;50.932;0.246;2024-02-28T01:13:02;6.60;100.00
21498;DHT22;10910;50.932;0.246;2024-02-28T01:15:28;6.60;100.00
21498;DHT22;10910;50.932;0.246;2024-02-28T01:17:53;6.70;100.00
21498;DHT22;10910;50.932;0.246;2024-02-28T01:20:19;6.70;100.00
21498;DHT22;10910;50.932;0.246;2024-02-28T01:22:44;6.70;100.00
21498;DHT22;10910;50.932;0.246;2024-02-28T01:25:10;6.70;100.00
21498;DHT22;10910;50.932;0.246;2024-02-28T01:27:36;6.80;100.00
21498;DHT22;10910;50.932;0.246;2024-02-28T01:30:02;6.80;100.00
21498;DHT22;10910;50.932;0.246;2024-02-28T01:32:29;6.80;100.00
21498;DHT22;10910;50.932;0.246;2024-02-28T01:34:55;6.80;100.00
21498;DHT22;10910;50.932;0.246;2024-02-28T01:37:20;6.80;100.00
21498;DHT22;10910;50.932;0.246;2024-02-28T01:39:46;6.80;100.00
21498;DHT22;10910;50.932;0.246;2024-02-28T01:42:11;6.80;100.00
21498;DHT22;10910;50.932;0.246;2024-02-28T01:44:43;6.80;100.00
21498;DHT22;10910;50.932;0.246;2024-02-28T01:47:10;6.80;100.00
21498;DHT22;10910;50.932;0.246;2024-02-28T01:49:35;6.80;100.00
21498;DHT22;10910;50.932;0.246;2024-02-28T01:52:02;6.80;100.00
21498;DHT22;10910;50.932;0.246;2024-02-28T01:54:29;6.80;100.00
21498;DHT22;10910;50.932;0.246;2024-02-28T01:56:55;6.80;100.00
21498;DHT22;10910;50.932;0.246;2024-02-28T01:59:23;6.80;100.00
21498;DHT22;10910;50.932;0.246;2024-02-28T02:01:50;6.80;100.00
21498;DHT22;10910;50.932;0.246;2024-02-28T02:04:16;6.90;100.00
21498;DHT22;10910;50.932;0.246;2024-02-28T02:06:43;6.90;100.00
21498;DHT22;10910;50.932;0.246;2024-02-28T02:09:09;6.90;100.00
21498;DHT22;10910;50.932;0.246;2024-02-28T02:11:35;6.90;100.00
21498;DHT22;10910;50.932;0.246;2024-02-28T02:14:01;6.90;100.00
21498;DHT22;10910;50.932;0.246;2024-02-28T02:16:27;7.00;100.00
21498;DHT22;10910;50.932;0.246;2024-02-28T02:18:52;7.00;100.00
21498;DHT22;10910;50.932;0.246;2024-02-28T02:21:20;6.90;100.00
21498;DHT22;10910;50.932;0.246;2024-02-28T02:23:48;7.00;100.00
21498;DHT22;10910;50.932;0.246;2024-02-28T02:26:13;7.00;100.00
21498;DHT22;10910;50.932;0.246;2024-02-28T02:28:39;7.00;100.00
21498;DHT22;10910;50.932;0.246;2024-02-28T02:31:04;7.00;100.00
21498;DHT22;10910;50.932;0.246;2024-02-28T02:33:30;7.00;100.00
21498;DHT22;10910;50.932;0.246;2024-02-28T02:35:56;7.10;100.00
21498;DHT22;10910;50.932;0.246;2024-02-28T02:38:22;7.10;100.00
21498;DHT22;10910;50.932;0.246;2024-02-28T02:40:51;7.10;100.00
21498;DHT22;10910;50.932;0.246;2024-02-28T02:43:17;7.10;100.00
21498;DHT22;10910;50.932;0.246;2024-02-28T02:45:43;7.10;100.00
21498;DHT22;10910;50.932;0.246;2024-02-28T02:48:09;7.20;100.00
21498;DHT22;10910;50.932;0.246;2024-02-28T02:50:34;7.20;100.00
21498;DHT22;10910;50.932;0.246;2024-02-28T02:53:01;7.20;100.00
21498;DHT22;10910;50.932;0.246;2024-02-28T02:55:27;7.30;100.00
21498;DHT22;10910;50.932;0.246;2024-02-28T02:57:53;7.40;100.00
21498;DHT22;10910;50.932;0.246;2024-02-28T03:00:18;7.30;100.00
21498;DHT22;10910;50.932;0.246;2024-02-28T03:02:44;7.30;100.00
21498;DHT22;10910;50.932;0.246;2024-02-28T03:05:10;7.10;100.00
21498;DHT22;10910;50.932;0.246;2024-02-28T03:07:35;7.10;100.00
21498;DHT22;10910;50.932;0.246;2024-02-28T03:10:01;7.20;100.00
21498;DHT22;10910;50.932;0.246;2024-02-28T03:12:27;7.30;100.00
21498;DHT22;10910;50.932;0.246;2024-02-28T03:14:53;7.40;100.00
21498;DHT22;10910;50.932;0.246;2024-02-28T03:17:18;7.40;100.00
21498;DHT22;10910;50.932;0.246;2024-02-28T03:19:44;7.50;100.00
21498;DHT22;10910;50.932;0.246;2024-02-28T03:22:09;7.50;100.00
21498;DHT22;10910;50.932;0.246;2024-02-28T03:24:35;7.50;100.00
21498;DHT22;10910;50.932;0.246;2024-02-28T03:27:02;7.50;100.00
21498;DHT22;10910;50.932;0.246;2024-02-28T03:29:28;7.50;100.00
21498;DHT22;10910;50.932;0.246;2024-02-28T03:31:54;7.50;100.00
21498;DHT22;10910;50.932;0.246;2024-02-28T03:34:19;7.50;100.00
21498;DHT22;10910;50.932;0.246;2024-02-28T03:36:45;7.60;100.00
21498;DHT22;10910;50.932;0.246;2024-02-28T03:39:11;7.60;100.00
21498;DHT22;10910;50.932;0.246;2024-02-28T03:41:37;7.60;100.00
21498;DHT22;10910;50.932;0.246;2024-02-28T03:44:04;7.60;100.00
21498;DHT22;10910;50.932;0.246;2024-02-28T03:46:29;7.60;100.00
21498;DHT22;10910;50.932;0.246;2024-02-28T03:48:55;7.50;100.00
21498;DHT22;10910;50.932;0.246;2024-02-28T03:51:21;7.40;100.00
21498;DHT22;10910;50.932;0.246;2024-02-28T03:53:47;7.30;100.00
21498;DHT22;10910;50.932;0.246;2024-02-28T03:56:13;7.20;100.00
21498;DHT22;10910;50.932;0.246;2024-02-28T03:58:40;7.10;100.00
21498;DHT22;10910;50.932;0.246;2024-02-28T04:01:05;7.20;100.00
21498;DHT22;10910;50.932;0.246;2024-02-28T04:03:31;7.20;100.00
21498;DHT22;10910;50.932;0.246;2024-02-28T04:05:57;7.30;100.00
21498;DHT22;10910;50.932;0.246;2024-02-28T04:08:23;7.40;100.00
21498;DHT22;10910;50.932;0.246;2024-02-28T04:10:49;7.30;100.00
21498;DHT22;10910;50.932;0.246;2024-02-28T04:13:16;7.40;100.00
21498;DHT22;10910;50.932;0.246;2024-02-28T04:15:42;7.40;100.00
21498;DHT22;10910;50.932;0.246;2024-02-28T04:18:07;7.50;100.00
21498;DHT22;10910;50.932;0.246;2024-02-28T04:20:33;7.50;100.00
21498;DHT22;10910;50.932;0.246;2024-02-28T04:22:59;7.40;100.00
21498;DHT22;10910;50.932;0.246;2024-02-28T04:25:24;7.40;100.00
21498;DHT22;10910;50.932;0.246;2024-02-28T04:27:50;7.30;100.00
21498;DHT22;10910;50.932;0.246;2024-02-28T04:30:15;7.30;100.00
21498;DHT22;10910;50.932;0.246;2024-02-28T04:32:41;7.40;100.00
21498;DHT22;10910;50.932;0.246;2024-02-28T04:35:07;7.50;100.00
21498;DHT22;10910;50.932;0.246;2024-02-28T04:37:33;7.50;100.00
21498;DHT22;10910;50.932;0.246;2024-02-28T04:40:00;7.60;100.00
21498;DHT22;10910;50.932;0.246;2024-02-28T04:42:26;7.60;100.00
21498;DHT22;10910;50.932;0.246;2024-02-28T04:44:51;7.60;100.00
21498;DHT22;10910;50.932;0.246;2024-02-28T04:47:17;7.50;100.00
21498;DHT22;10910;50.932;0.246;2024-02-28T04:49:43;7.60;100.00
21498;DHT22;10910;50.932;0.246;2024-02-28T04:52:08;7.50;100.00
21498;DHT22;10910;50.932;0.246;2024-02-28T04:54:34;7.50;100.00
21498;DHT22;10910;50.932;0.246;2024-02-28T04:57:00;7.50;100.00
21498;DHT22;10910;50.932;0.246;2024-02-28T04:59:26;7.40;100.00
21498;DHT22;10910;50.932;0.246;2024-02-28T05:01:51;7.40;100.00
21498;DHT22;10910;50.932;0.246;2024-02-28T05:04:17;7.40;100.00
21498;DHT22;10910;50.932;0.246;2024-02-28T05:06:43;7.50;100.00
21498;DHT22;10910;50.932;0.246;2024-02-28T05:09:08;7.40;100.00
21498;DHT22;10910;50.932;0.246;2024-02-28T05:11:34;7.50;100.00
21498;DHT22;10910;50.932;0.246;2024-02-28T05:14:00;7.50;100.00
21498;DHT22;10910;50.932;0.246;2024-02-28T05:16:26;7.50;100.00
21498;DHT22;10910;50.932;0.246;2024-02-28T05:18:51;7.50;100.00
21498;DHT22;10910;50.932;0.246;2024-02-28T05:21:17;7.50;100.00
21498;DHT22;10910;50.932;0.246;2024-02-28T05:23:43;7.50;100.00
21498;DHT22;10910;50.932;0.246;2024-02-28T05:26:09;7.50;100.00
21498;DHT22;10910;50.932;0.246;2024-02-28T05:28:34;7.50;100.00
21498;DHT22;10910;50.932;0.246;2024-02-28T05:31:22;7.40;100.00
21498;DHT22;10910;50.932;0.246;2024-02-28T05:33:54;7.40;100.00
21498;DHT22;10910;50.932;0.246;2024-02-28T05:36:21;7.50;100.00
21498;DHT22;10910;50.932;0.246;2024-02-28T05:38:47;7.50;100.00
21498;DHT22;10910;50.932;0.246;2024-02-28T05:41:13;7.40;100.00
21498;DHT22;10910;50.932;0.246;2024-02-28T05:43:40;7.50;100.00
21498;DHT22;10910;50.932;0.246;2024-02-28T05:46:06;7.50;100.00
21498;DHT22;10910;50.932;0.246;2024-02-28T05:48:32;7.50;100.00
21498;DHT22;10910;50.932;0.246;2024-02-28T05:50:57;7.50;100.00
21498;DHT22;10910;50.932;0.246;2024-02-28T05:53:23;7.50;100.00
21498;DHT22;10910;50.932;0.246;2024-02-28T05:55:55;7.50;100.00
21498;DHT22;10910;50.932;0.246;2024-02-28T05:58:22;7.50;100.00
21498;DHT22;10910;50.932;0.246;2024-02-28T06:00:48;7.60;100.00
21498;DHT22;10910;50.932;0.246;2024-02-28T06:03:14;7.60;100.00
21498;DHT22;10910;50.932;0.246;2024-02-28T06:05:40;7.60;100.00
21498;DHT22;10910;50.932;0.246;2024-02-28T06:08:06;7.60;100.00
21498;DHT22;10910;50.932;0.246;2024-02-28T06:10:32;7.60;100.00
21498;DHT22;10910;50.932;0.246;2024-02-28T06:12:57;7.60;100.00
21498;DHT22;10910;50.932;0.246;2024-02-28T06:15:23;7.60;100.00
21498;DHT22;10910;50.932;0.246;2024-02-28T06:17:49;7.60;100.00
21498;DHT22;10910;50.932;0.246;2024-02-28T06:20:14;7.60;100.00
21498;DHT22;10910;50.932;0.246;2024-02-28T06:22:40;7.50;100.00
21498;DHT22;10910;50.932;0.246;2024-02-28T06:25:06;7.50;100.00
21498;DHT22;10910;50.932;0.246;2024-02-28T06:27:39;7.50;100.00
21498;DHT22;10910;50.932;0.246;2024-02-28T06:30:06;7.60;100.00
21498;DHT22;10910;50.932;0.246;2024-02-28T06:32:32;7.60;100.00
21498;DHT22;10910;50.932;0.246;2024-02-28T06:34:58;7.60;100.00
21498;DHT22;10910;50.932;0.246;2024-02-28T06:37:23;7.60;100.00
21498;DHT22;10910;50.932;0.246;2024-02-28T06:39:49;7.60;100.00
21498;DHT22;10910;50.932;0.246;2024-02-28T06:42:15;7.60;100.00
21498;DHT22;10910;50.932;0.246;2024-02-28T06:44:40;7.60;100.00
21498;DHT22;10910;50.932;0.246;2024-02-28T06:47:07;7.50;100.00
21498;DHT22;10910;50.932;0.246;2024-02-28T06:49:34;7.60;100.00
21498;DHT22;10910;50.932;0.246;2024-02-28T06:52:00;7.60;100.00
21498;DHT22;10910;50.932;0.246;2024-02-28T06:54:29;7.60;100.00
21498;DHT22;10910;50.932;0.246;2024-02-28T06:56:55;7.60;100.00
21498;DHT22;10910;50.932;0.246;2024-02-28T06:59:21;7.60;100.00
21498;DHT22;10910;50.932;0.246;2024-02-28T07:01:46;7.60;100.00
21498;DHT22;10910;50.932;0.246;2024-02-28T07:04:12;7.60;100.00
21498;DHT22;10910;50.932;0.246;2024-02-28T07:06:38;7.60;100.00
21498;DHT22;10910;50.932;0.246;2024-02-28T07:09:04;7.60;100.00
21498;DHT22;10910;50.932;0.246;2024-02-28T07:11:29;7.60;100.00
21498;DHT22;10910;50.932;0.246;2024-02-28T07:13:55;7.60;100.00
21498;DHT22;10910;50.932;0.246;2024-02-28T07:16:23;7.70;100.00
21498;DHT22;10910;50.932;0.246;2024-02-28T07:18:48;7.60;100.00
21498;DHT22;10910;50.932;0.246;2024-02-28T07:21:14;7.60;100.00
21498;DHT22;10910;50.932;0.246;2024-02-28T07:23:40;7.60;100.00
21498;DHT22;10910;50.932;0.246;2024-02-28T07:26:06;7.60;100.00
21498;DHT22;10910;50.932;0.246;2024-02-28T07:28:32;7.60;100.00
21498;DHT22;10910;50.932;0.246;2024-02-28T07:30:58;7.60;100.00
21498;DHT22;10910;50.932;0.246;2024-02-28T07:33:23;7.60;100.00
21498;DHT22;10910;50.932;0.246;2024-02-28T07:35:52;7.70;100.00
21498;DHT22;10910;50.932;0.246;2024-02-28T07:38:18;7.70;100.00
21498;DHT22;10910;50.932;0.246;2024-02-28T07:40:47;7.70;100.00
21498;DHT22;10910;50.932;0.246;2024-02-28T07:43:12;7.60;100.00
21498;DHT22;10910;50.932;0.246;2024-02-28T07:45:39;7.70;100.00
21498;DHT22;10910;50.932;0.246;2024-02-28T07:48:05;7.70;100.00
21498;DHT22;10910;50.932;0.246;2024-02-28T07:50:31;7.70;100.00
21498;DHT22;10910;50.932;0.246;2024-02-28T07:52:57;7.80;100.00
21498;DHT22;10910;50.932;0.246;2024-02-28T07:55:22;7.80;100.00
21498;DHT22;10910;50.932;0.246;2024-02-28T07:57:52;7.80;100.00
21498;DHT22;10910;50.932;0.246;2024-02-28T08:00:18;7.80;100.00
21498;DHT22;10910;50.932;0.246;2024-02-28T08:02:45;7.80;100.00
21498;DHT22;10910;50.932;0.246;2024-02-28T08:05:11;7.70;100.00
21498;DHT22;10910;50.932;0.246;2024-02-28T08:07:36;7.60;100.00
21498;DHT22;10910;50.932;0.246;2024-02-28T08:10:03;7.60;100.00
21498;DHT22;10910;50.932;0.246;2024-02-28T08:12:31;7.80;100.00
21498;DHT22;10910;50.932;0.246;2024-02-28T08:14:57;7.80;100.00
21498;DHT22;10910;50.932;0.246;2024-02-28T08:17:23;7.90;100.00
21498;DHT22;10910;50.932;0.246;2024-02-28T08:19:49;8.00;100.00
21498;DHT22;10910;50.932;0.246;2024-02-28T08:22:14;7.90;100.00
21498;DHT22;10910;50.932;0.246;2024-02-28T08:24:40;7.90;100.00
21498;DHT22;10910;50.932;0.246;2024-02-28T08:27:06;7.90;100.00
21498;DHT22;10910;50.932;0.246;2024-02-28T08:29:31;7.90;100.00
21498;DHT22;10910;50.932;0.246;2024-02-28T08:31:58;8.00;100.00
21498;DHT22;10910;50.932;0.246;2024-02-28T08:34:24;8.00;100.00
21498;DHT22;10910;50.932;0.246;2024-02-28T08:36:50;7.90;100.00
21498;DHT22;10910;50.932;0.246;2024-02-28T08:39:17;8.00;100.00
21498;DHT22;10910;50.932;0.246;2024-02-28T08:41:43;7.90;100.00
21498;DHT22;10910;50.932;0.246;2024-02-28T08:44:08;7.80;100.00
21498;DHT22;10910;50.932;0.246;2024-02-28T08:46:34;7.80;100.00
21498;DHT22;10910;50.932;0.246;2024-02-28T08:49:00;7.80;100.00
21498;DHT22;10910;50.932;0.246;2024-02-28T08:51:25;7.80;100.00
21498;DHT22;10910;50.932;0.246;2024-02-28T08:53:52;7.90;100.00
21498;DHT22;10910;50.932;0.246;2024-02-28T08:56:19;7.80;100.00
21498;DHT22;10910;50.932;0.246;2024-02-28T08:58:45;7.80;100.00
21498;DHT22;10910;50.932;0.246;2024-02-28T09:01:16;7.80;100.00
21498;DHT22;10910;50.932;0.246;2024-02-28T09:03:42;7.80;100.00
21498;DHT22;10910;50.932;0.246;2024-02-28T09:06:08;7.90;100.00
21498;DHT22;10910;50.932;0.246;2024-02-28T09:08:33;7.90;100.00
21498;DHT22;10910;50.932;0.246;2024-02-28T09:10:59;7.90;100.00
21498;DHT22;10910;50.932;0.246;2024-02-28T09:13:25;7.90;100.00
21498;DHT22;10910;50.932;0.246;2024-02-28T09:15:52;8.00;100.00
21498;DHT22;10910;50.932;0.246;2024-02-28T09:18:17;8.00;100.00
21498;DHT22;10910;50.932;0.246;2024-02-28T09:20:43;8.00;100.00
21498;DHT22;10910;50.932;0.246;2024-02-28T09:23:09;8.00;100.00
21498;DHT22;10910;50.932;0.246;2024-02-28T09:25:34;8.10;100.00
21498;DHT22;10910;50.932;0.246;2024-02-28T09:28:01;8.10;100.00
21498;DHT22;10910;50.932;0.246;2024-02-28T09:30:28;8.20;100.00
21498;DHT22;10910;50.932;0.246;2024-02-28T09:32:53;8.20;100.00
21498;DHT22;10910;50.932;0.246;2024-02-28T09:35:19;8.30;100.00
21498;DHT22;10910;50.932;0.246;2024-02-28T09:37:45;8.30;100.00
21498;DHT22;10910;50.932;0.246;2024-02-28T09:40:11;8.40;100.00
21498;DHT22;10910;50.932;0.246;2024-02-28T09:42:38;8.40;100.00
21498;DHT22;10910;50.932;0.246;2024-02-28T09:45:04;8.30;100.00
21498;DHT22;10910;50.932;0.246;2024-02-28T09:47:30;8.40;100.00
21498;DHT22;10910;50.932;0.246;2024-02-28T09:49:57;8.40;100.00
21498;DHT22;10910;50.932;0.246;2024-02-28T09:52:26;8.50;100.00
21498;DHT22;10910;50.932;0.246;2024-02-28T09:54:53;8.50;100.00
21498;DHT22;10910;50.932;0.246;2024-02-28T09:57:19;8.60;100.00
21498;DHT22;10910;50.932;0.246;2024-02-28T09:59:46;8.70;100.00
21498;DHT22;10910;50.932;0.246;2024-02-28T10:02:15;8.70;100.00
21498;DHT22;10910;50.932;0.246;2024-02-28T10:04:42;8.70;100.00
21498;DHT22;10910;50.932;0.246;2024-02-28T10:07:12;8.70;100.00
21498;DHT22;10910;50.932;0.246;2024-02-28T10:09:41;8.70;100.00
21498;DHT22;10910;50.932;0.246;2024-02-28T10:12:07;8.70;100.00
21498;DHT22;10910;50.932;0.246;2024-02-28T10:14:33;8.70;100.00
21498;DHT22;10910;50.932;0.246;2024-02-28T10:16:59;8.70;100.00
21498;DHT22;10910;50.932;0.246;2024-02-28T10:19:25;8.70;100.00
21498;DHT22;10910;50.932;0.246;2024-02-28T10:21:50;8.70;100.00
21498;DHT22;10910;50.932;0.246;2024-02-28T10:24:16;8.60;100.00
21498;DHT22;10910;50.932;0.246;2024-02-28T10:26:46;8.60;100.00
21498;DHT22;10910;50.932;0.246;2024-02-28T10:29:30;8.70;100.00
21498;DHT22;10910;50.932;0.246;2024-02-28T10:31:58;8.70;100.00
21498;DHT22;10910;50.932;0.246;2024-02-28T10:34:24;8.70;100.00
21498;DHT22;10910;50.932;0.246;2024-02-28T10:36:50;8.80;100.00
21498;DHT22;10910;50.932;0.246;2024-02-28T10:39:16;8.80;100.00
21498;DHT22;10910;50.932;0.246;2024-02-28T10:41:43;8.80;100.00
21498;DHT22;10910;50.932;0.246;2024-02-28T10:44:09;8.90;100.00
21498;DHT22;10910;50.932;0.246;2024-02-28T10:46:37;8.80;100.00
21498;DHT22;10910;50.932;0.246;2024-02-28T10:49:06;8.80;100.00
21498;DHT22;10910;50.932;0.246;2024-02-28T10:51:35;8.80;100.00
21498;DHT22;10910;50.932;0.246;2024-02-28T10:56:28;8.90;100.00
21498;DHT22;10910;50.932;0.246;2024-02-28T10:58:57;8.90;100.00
21498;DHT22;10910;50.932;0.246;2024-02-28T11:01:25;8.90;100.00
21498;DHT22;10910;50.932;0.246;2024-02-28T11:03:51;9.00;100.00
21498;DHT22;10910;50.932;0.246;2024-02-28T11:06:21;9.00;100.00
21498;DHT22;10910;50.932;0.246;2024-02-28T11:08:48;9.00;100.00
21498;DHT22;10910;50.932;0.246;2024-02-28T11:11:18;9.00;100.00
21498;DHT22;10910;50.932;0.246;2024-02-28T11:13:55;9.00;100.00
21498;DHT22;10910;50.932;0.246;2024-02-28T11:16:30;9.00;100.00
21498;DHT22;10910;50.932;0.246;2024-02-28T11:18:56;9.00;100.00
21498;DHT22;10910;50.932;0.246;2024-02-28T11:21:26;9.00;100.00
21498;DHT22;10910;50.932;0.246;2024-02-28T11:23:59;9.10;100.00
21498;DHT22;10910;50.932;0.246;2024-02-28T11:26:25;9.10;100.00
21498;DHT22;10910;50.932;0.246;2024-02-28T11:28:55;9.10;100.00
21498;DHT22;10910;50.932;0.246;2024-02-28T11:31:21;9.10;100.00
21498;DHT22;10910;50.932;0.246;2024-02-28T11:33:47;9.20;100.00
21498;DHT22;10910;50.932;0.246;2024-02-28T11:36:13;9.20;100.00
21498;DHT22;10910;50.932;0.246;2024-02-28T11:38:40;9.20;100.00
21498;DHT22;10910;50.932;0.246;2024-02-28T11:41:06;9.20;100.00
21498;DHT22;10910;50.932;0.246;2024-02-28T11:43:33;9.20;100.00
21498;DHT22;10910;50.932;0.246;2024-02-28T11:46:00;9.20;100.00
21498;DHT22;10910;50.932;0.246;2024-02-28T11:48:27;9.20;100.00
21498;DHT22;10910;50.932;0.246;2024-02-28T11:50:56;9.20;100.00
21498;DHT22;10910;50.932;0.246;2024-02-28T11:53:27;9.20;100.00
21498;DHT22;10910;50.932;0.246;2024-02-28T11:55:53;9.30;100.00
21498;DHT22;10910;50.932;0.246;2024-02-28T11:58:21;9.30;100.00
21498;DHT22;10910;50.932;0.246;2024-02-28T12:00:48;9.30;100.00
21498;DHT22;10910;50.932;0.246;2024-02-28T12:03:14;9.40;100.00
21498;DHT22;10910;50.932;0.246;2024-02-28T12:05:43;9.40;100.00
21498;DHT22;10910;50.932;0.246;2024-02-28T12:08:10;9.50;100.00
21498;DHT22;10910;50.932;0.246;2024-02-28T12:10:36;9.50;100.00
21498;DHT22;10910;50.932;0.246;2024-02-28T12:13:02;9.60;100.00
21498;DHT22;10910;50.932;0.246;2024-02-28T12:15:29;9.50;100.00
21498;DHT22;10910;50.932;0.246;2024-02-28T12:17:55;9.50;100.00
21498;DHT22;10910;50.932;0.246;2024-02-28T12:20:20;9.50;100.00
21498;DHT22;10910;50.932;0.246;2024-02-28T12:22:46;9.40;100.00
21498;DHT22;10910;50.932;0.246;2024-02-28T12:25:11;9.40;100.00
21498;DHT22;10910;50.932;0.246;2024-02-28T12:27:37;9.40;100.00
21498;DHT22;10910;50.932;0.246;2024-02-28T12:30:03;9.40;100.00
21498;DHT22;10910;50.932;0.246;2024-02-28T12:32:28;9.50;100.00
21498;DHT22;10910;50.932;0.246;2024-02-28T12:34:54;9.60;100.00
21498;DHT22;10910;50.932;0.246;2024-02-28T12:37:20;9.50;100.00
21498;DHT22;10910;50.932;0.246;2024-02-28T12:39:45;9.40;100.00
21498;DHT22;10910;50.932;0.246;2024-02-28T12:42:13;9.40;100.00
21498;DHT22;10910;50.932;0.246;2024-02-28T12:44:38;9.40;100.00
21498;DHT22;10910;50.932;0.246;2024-02-28T12:47:06;9.40;100.00
21498;DHT22;10910;50.932;0.246;2024-02-28T12:49:32;9.50;100.00
21498;DHT22;10910;50.932;0.246;2024-02-28T12:51:57;9.50;100.00
21498;DHT22;10910;50.932;0.246;2024-02-28T12:54:23;9.50;100.00
21498;DHT22;10910;50.932;0.246;2024-02-28T12:56:49;9.50;99.30
21498;DHT22;10910;50.932;0.246;2024-02-28T12:59:15;9.50;98.70
21498;DHT22;10910;50.932;0.246;2024-02-28T13:01:41;9.50;98.20
21498;DHT22;10910;50.932;0.246;2024-02-28T13:04:07;9.50;97.60
21498;DHT22;10910;50.932;0.246;2024-02-28T13:06:32;9.50;97.30
21498;DHT22;10910;50.932;0.246;2024-02-28T13:08:58;9.40;95.30
21498;DHT22;10910;50.932;0.246;2024-02-28T13:11:24;9.40;96.50
21498;DHT22;10910;50.932;0.246;2024-02-28T13:13:51;9.50;96.50
21498;DHT22;10910;50.932;0.246;2024-02-28T13:16:20;9.50;96.30
21498;DHT22;10910;50.932;0.246;2024-02-28T13:18:47;9.50;96.40
21498;DHT22;10910;50.932;0.246;2024-02-28T13:21:13;9.60;96.30
21498;DHT22;10910;50.932;0.246;2024-02-28T13:23:39;9.60;96.40
21498;DHT22;10910;50.932;0.246;2024-02-28T13:26:05;9.50;94.90
21498;DHT22;10910;50.932;0.246;2024-02-28T13:28:31;9.40;94.90
21498;DHT22;10910;50.932;0.246;2024-02-28T13:31:00;9.40;96.00
21498;DHT22;10910;50.932;0.246;2024-02-28T13:33:26;9.50;96.30
21498;DHT22;10910;50.932;0.246;2024-02-28T13:35:53;9.40;96.00
21498;DHT22;10910;50.932;0.246;2024-02-28T13:38:19;9.50;96.50
21498;DHT22;10910;50.932;0.246;2024-02-28T13:40:46;9.50;96.30
21498;DHT22;10910;50.932;0.246;2024-02-28T13:43:12;9.50;96.30
21498;DHT22;10910;50.932;0.246;2024-02-28T13:45:38;9.60;96.90
21498;DHT22;10910;50.932;0.246;2024-02-28T13:48:18;9.60;97.20
21498;DHT22;10910;50.932;0.246;2024-02-28T13:50:46;9.60;95.70
21498;DHT22;10910;50.932;0.246;2024-02-28T13:53:13;9.50;96.80
21498;DHT22;10910;50.932;0.246;2024-02-28T13:55:39;9.50;98.00
21498;DHT22;10910;50.932;0.246;2024-02-28T13:58:05;9.60;98.60
21498;DHT22;10910;50.932;0.246;2024-02-28T14:00:32;9.70;97.30
21498;DHT22;10910;50.932;0.246;2024-02-28T14:02:57;9.80;97.50
21498;DHT22;10910;50.932;0.246;2024-02-28T14:05:23;9.70;96.70
21498;DHT22;10910;50.932;0.246;2024-02-28T14:07:49;9.60;97.20
21498;DHT22;10910;50.932;0.246;2024-02-28T14:10:15;9.70;98.00
21498;DHT22;10910;50.932;0.246;2024-02-28T14:12:41;9.60;98.70
21498;DHT22;10910;50.932;0.246;2024-02-28T14:15:07;9.60;99.40
21498;DHT22;10910;50.932;0.246;2024-02-28T14:17:34;9.60;99.60
21498;DHT22;10910;50.932;0.246;2024-02-28T14:20:00;9.60;99.80
21498;DHT22;10910;50.932;0.246;2024-02-28T14:22:26;9.60;100.00
21498;DHT22;10910;50.932;0.246;2024-02-28T14:24:51;9.60;100.00
21498;DHT22;10910;50.932;0.246;2024-02-28T14:27:17;9.50;100.00
21498;DHT22;10910;50.932;0.246;2024-02-28T14:29:45;9.50;100.00
21498;DHT22;10910;50.932;0.246;2024-02-28T14:32:11;9.40;100.00
21498;DHT22;10910;50.932;0.246;2024-02-28T14:34:37;9.40;100.00
21498;DHT22;10910;50.932;0.246;2024-02-28T14:37:02;9.40;100.00
21498;DHT22;10910;50.932;0.246;2024-02-28T14:39:29;9.40;100.00
21498;DHT22;10910;50.932;0.246;2024-02-28T14:41:55;9.30;100.00
21498;DHT22;10910;50.932;0.246;2024-02-28T14:44:21;9.30;100.00
21498;DHT22;10910;50.932;0.246;2024-02-28T14:46:46;9.20;100.00
21498;DHT22;10910;50.932;0.246;2024-02-28T14:49:12;9.20;100.00
21498;DHT22;10910;50.932;0.246;2024-02-28T14:51:37;9.00;100.00
21498;DHT22;10910;50.932;0.246;2024-02-28T14:54:03;9.00;100.00
21498;DHT22;10910;50.932;0.246;2024-02-28T14:56:29;8.90;100.00
21498;DHT22;10910;50.932;0.246;2024-02-28T14:58:55;8.90;100.00
21498;DHT22;10910;50.932;0.246;2024-02-28T15:01:21;8.90;100.00
21498;DHT22;10910;50.932;0.246;2024-02-28T15:03:49;8.80;100.00
21498;DHT22;10910;50.932;0.246;2024-02-28T15:06:15;8.80;100.00
21498;DHT22;10910;50.932;0.246;2024-02-28T15:08:41;8.80;100.00
21498;DHT22;10910;50.932;0.246;2024-02-28T15:11:06;8.80;100.00
21498;DHT22;10910;50.932;0.246;2024-02-28T15:13:32;8.70;100.00
21498;DHT22;10910;50.932;0.246;2024-02-28T15:15:58;8.70;100.00
21498;DHT22;10910;50.932;0.246;2024-02-28T15:18:23;8.80;100.00
21498;DHT22;10910;50.932;0.246;2024-02-28T15:20:49;8.70;100.00
21498;DHT22;10910;50.932;0.246;2024-02-28T15:23:15;8.70;100.00
21498;DHT22;10910;50.932;0.246;2024-02-28T15:25:41;8.60;100.00
21498;DHT22;10910;50.932;0.246;2024-02-28T15:28:07;8.60;100.00